Time;durP1;ratioP1;P1;durP2;ratioP2;P2;SDS_P1;SDS_P2;PMS_P1;PMS_P2;Temp;Humidity;BMP_temperature;BMP_pressure;BME280_temperature;BME280_humidity;BME280_pressure;Samples;Min_cycle;Max_cycle;Signal;HPM_P1;HPM_P2
2023/03/21 00:01:26;;;;;;;;;;;;;;;;;;5074758;28;19919;-74
2023/03/21 00:04:29;;;;;;;;;;;;;;;;;;5074651;28;19919;-74
2023/03/21 00:07:32;;;;;;;;;;;;;;;;;;5074588;28;20288;-74
2023/03/21 00:10:35;;;;;;;;;;;;;;;;;;5074588;28;19919;-75
2023/03/21 00:13:41;;;;;;;;;;;;;;;;;;5074447;28;20398;-75
2023/03/21 00:16:49;;;;;;;;;;;;;;;;;;5074749;28;20337;-75
2023/03/21 00:19:53;;;;;;;;;;;;;;;;;;5074662;28;20001;-73
2023/03/21 00:22:55;;;;;;;;;;;;;;;;;;5061722;28;19923;-73
2023/03/21 00:25:58;;;;;;;;;;;;;;;;;;5074263;28;19918;-73
2023/03/21 00:29:01;;;;;;;;;;;;;;;;;;5074035;28;19974;-73
2023/03/21 00:32:04;;;;;;;;;;;;;;;;;;5074074;28;19919;-73
2023/03/21 00:35:07;;;;;;;;;;;;;;;;;;5074231;28;20404;-73
2023/03/21 00:38:10;;;;;;;;;;;;;;;;;;5085152;28;19924;-73
2023/03/21 00:41:16;;;;;;;;;;;;;;;;;;5073929;28;19966;-73
2023/03/21 00:44:20;;;;;;;;;;;;;;;;;;5074105;28;19919;-73
2023/03/21 00:47:23;;;;;;;;;;;;;;;;;;5072924;28;19994;-73
2023/03/21 00:50:26;;;;;;;;;;;;;;;;;;5073847;28;19920;-73
2023/03/21 00:53:30;;;;;;;;;;;;;;;;;;5073415;28;19926;-73
2023/03/21 00:56:35;;;;;;;;;;;;;;;;;;5072744;28;19920;-74
2023/03/21 00:59:38;;;;;;;;;;;;;;;;;;5072690;28;20345;-73
2023/03/21 01:02:55;;;;;;;;;;;;;;;;;;5073560;28;20016;-73
2023/03/21 01:06:03;;;;;;;;;;;;;;;;;;5073392;28;19920;-73
2023/03/21 01:09:06;;;;;;;;;;;;;;;;;;5073335;28;20379;-73
2023/03/21 01:12:09;;;;;;;;;;;;;;;;;;5073357;28;19936;-73
2023/03/21 01:15:13;;;;;;;;;;;;;;;;;;5073185;28;19925;-73
2023/03/21 01:18:16;;;;;;;;;;;;;;;;;;5073357;28;20333;-73
2023/03/21 01:21:19;;;;;;;;;;;;;;;;;;5072189;28;19965;-74
2023/03/21 01:24:23;;;;;;;;;;;;;;;;;;5073045;28;19935;-73
2023/03/21 01:27:26;;;;;;;;;;;;;;;;;;5073003;28;20021;-73
2023/03/21 01:30:29;;;;;;;;;;;;;;;;;;5072145;28;19981;-72
2023/03/21 01:33:32;;;;;;;;;;;;;;;;;;5072262;28;19962;-72
2023/03/21 01:36:35;;;;;;;;;;;;;;;;;;5072889;28;19969;-72
2023/03/21 01:39:41;;;;;;;;;;;;;;;;;;5071565;28;19966;-72
2023/03/21 01:42:44;;;;;;;;;;;;;;;;;;5071803;28;19919;-73
2023/03/21 01:45:47;;;;;;;;;;;;;;;;;;5071898;28;19919;-72
2023/03/21 01:48:51;;;;;;;;;;;;;;;;;;5071878;28;19924;-72
2023/03/21 01:51:54;;;;;;;;;;;;;;;;;;5072530;28;19940;-72
2023/03/21 01:54:57;;;;;;;;;;;;;;;;;;5071752;28;19923;-72
2023/03/21 01:58:00;;;;;;;;;;;;;;;;;;5072068;28;19920;-73
2023/03/21 02:01:03;;;;;;;;;;;;;;;;;;5071852;28;20433;-74
2023/03/21 02:04:13;;;;;;;;;;;;;;;;;;5072120;28;19920;-73
2023/03/21 02:07:27;;;;;;;;;;;;;;;;;;5072045;28;19982;-73
2023/03/21 02:10:35;;;;;;;;;;;;;;;;;;5071826;28;19945;-73
2023/03/21 02:13:39;;;;;;;;;;;;;;;;;;5071587;28;19939;-73
2023/03/21 02:16:44;;;;;;;;;;;;;;;;;;5072515;28;19939;-73
2023/03/21 02:19:48;;;;;;;;;;;;;;;;;;5071822;28;19918;-73
2023/03/21 02:22:51;;;;;;;;;;;;;;;;;;5071579;28;19973;-73
2023/03/21 02:25:54;;;;;;;;;;;;;;;;;;5071569;28;19966;-73
2023/03/21 02:28:57;;;;;;;;;;;;;;;;;;5071579;28;19935;-73
2023/03/21 02:32:00;;;;;;;;;;;;;;;;;;5071506;28;20394;-73
2023/03/21 02:35:03;;;;;;;;;;;;;;;;;;5071290;28;19927;-74
2023/03/21 02:38:06;;;;;;;;;;;;;;;;;;5071442;28;19920;-73
2023/03/21 02:41:09;;;;;;;;;;;;;;;;;;5072579;28;19959;-74
2023/03/21 02:44:12;;;;;;;;;;;;;;;;;;5071409;28;19957;-73
2023/03/21 02:47:19;;;;;;;;;;;;;;;;;;5071363;28;19923;-73
2023/03/21 02:50:22;;;;;;;;;;;;;;;;;;5071255;28;19996;-73
2023/03/21 02:53:25;;;;;;;;;;;;;;;;;;5074704;28;19927;-73
2023/03/21 02:56:30;;;;;;;;;;;;;;;;;;5075046;28;20355;-73
2023/03/21 02:59:33;;;;;;;;;;;;;;;;;;5074908;28;19919;-73
2023/03/21 03:02:39;;;;;;;;;;;;;;;;;;5074883;28;19935;-73
2023/03/21 03:05:43;;;;;;;;;;;;;;;;;;5075112;28;20342;-72
2023/03/21 03:08:46;;;;;;;;;;;;;;;;;;5074772;28;19920;-72
2023/03/21 03:11:49;;;;;;;;;;;;;;;;;;5075985;28;19972;-72
2023/03/21 03:14:52;;;;;;;;;;;;;;;;;;5075455;28;20011;-72
2023/03/21 03:17:55;;;;;;;;;;;;;;;;;;5074740;28;19974;-72
2023/03/21 03:20:58;;;;;;;;;;;;;;;;;;5074748;28;19919;-72
2023/03/21 03:24:00;;;;;;;;;;;;;;;;;;5074404;28;19920;-72
2023/03/21 03:27:03;;;;;;;;;;;;;;;;;;5075355;28;19920;-72
2023/03/21 03:30:06;;;;;;;;;;;;;;;;;;5074416;28;19920;-72
2023/03/21 03:33:10;;;;;;;;;;;;;;;;;;5074309;28;19923;-72
2023/03/21 03:36:13;;;;;;;;;;;;;;;;;;5074558;28;19935;-72
2023/03/21 03:39:16;;;;;;;;;;;;;;;;;;5074289;28;19920;-72
2023/03/21 03:42:24;;;;;;;;;;;;;;;;;;5074327;28;19981;-72
2023/03/21 03:45:32;;;;;;;;;;;;;;;;;;5074479;28;19919;-73
2023/03/21 03:48:35;;;;;;;;;;;;;;;;;;5074020;28;19920;-72
2023/03/21 03:51:38;;;;;;;;;;;;;;;;;;5073679;28;19994;-73
2023/03/21 03:55:04;;;;;;;;;;;;;;;;;;5074220;28;20377;-72
2023/03/21 03:58:11;;;;;;;;;;;;;;;;;;5074082;28;19919;-72
2023/03/21 04:01:14;;;;;;;;;;;;;;;;;;5074692;28;20293;-72
2023/03/21 04:04:17;;;;;;;;;;;;;;;;;;5073831;28;19962;-72
2023/03/21 04:07:21;;;;;;;;;;;;;;;;;;5073670;28;19922;-72
2023/03/21 04:10:25;;;;;;;;;;;;;;;;;;5073685;28;19924;-73
2023/03/21 04:13:27;;;;;;;;;;;;;;;;;;5073763;28;20008;-72
2023/03/21 04:16:40;;;;;;;;;;;;;;;;;;5073565;28;19966;-71
2023/03/21 04:19:44;;;;;;;;;;;;;;;;;;5073347;28;19919;-71
2023/03/21 04:22:47;;;;;;;;;;;;;;;;;;5074261;28;19919;-71
2023/03/21 04:25:51;;;;;;;;;;;;;;;;;;5073572;28;20272;-70
2023/03/21 04:28:53;;;;;;;;;;;;;;;;;;5073297;28;19938;-70
2023/03/21 04:32:00;;;;;;;;;;;;;;;;;;5074414;28;20391;-70
2023/03/21 04:35:03;;;;;;;;;;;;;;;;;;5072893;28;19967;-69
2023/03/21 04:38:06;;;;;;;;;;;;;;;;;;5072386;28;19919;-70
2023/03/21 04:41:09;;;;;;;;;;;;;;;;;;5073349;28;20066;-70
2023/03/21 04:44:12;;;;;;;;;;;;;;;;;;5074123;28;19935;-70
2023/03/21 04:47:15;;;;;;;;;;;;;;;;;;5073006;28;19919;-69
2023/03/21 04:53:48;;;;;;;;;;;;;;;;;;5072694;28;19928;-73
2023/03/21 04:56:51;;;;;;;;;;;;;;;;;;5072801;28;19919;-73
2023/03/21 04:59:54;;;;;;;;;;;;;;;;;;5073575;28;20288;-73
2023/03/21 05:02:58;;;;;;;;;;;;;;;;;;5072505;28;19969;-73
2023/03/21 05:06:03;;;;;;;;;;;;;;;;;;5073294;28;19973;-73
2023/03/21 05:09:06;;;;;;;;;;;;;;;;;;5073545;28;19919;-72
2023/03/21 05:12:10;;;;;;;;;;;;;;;;;;5072606;28;20402;-72
2023/03/21 05:15:13;;;;;;;;;;;;;;;;;;5071554;28;19923;-74
2023/03/21 05:18:23;;;;;;;;;;;;;;;;;;5072439;28;19919;-73
2023/03/21 05:21:42;;;;;;;;;;;;;;;;;;5072210;28;19920;-73
2023/03/21 05:24:50;;;;;;;;;;;;;;;;;;5070819;28;19955;-72
2023/03/21 05:28:08;;;;;;;;;;;;;;;;;;5070893;28;19923;-72
2023/03/21 05:31:14;;;;;;;;;;;;;;;;;;5071020;28;20315;-73
2023/03/21 05:34:17;;;;;;;;;;;;;;;;;;5070835;28;19969;-73
2023/03/21 05:37:21;;;;;;;;;;;;;;;;;;5071313;28;19936;-73
2023/03/21 05:40:26;;;;;;;;;;;;;;;;;;5072438;28;19935;-73
2023/03/21 05:43:32;;;;;;;;;;;;;;;;;;5071922;28;19966;-72
2023/03/21 05:46:35;;;;;;;;;;;;;;;;;;5072063;28;19966;-72
2023/03/21 05:49:38;;;;;;;;;;;;;;;;;;5071778;28;20447;-74
2023/03/21 05:52:41;;;;;;;;;;;;;;;;;;5071693;28;19947;-75
2023/03/21 05:55:48;;;;;;;;;;;;;;;;;;5072208;28;19924;-74
2023/03/21 05:59:07;;;;;;;;;;;;;;;;;;5062565;28;19920;-74
2023/03/21 06:02:15;;;;;;;;;;;;;;;;;;5071756;28;19919;-74
2023/03/21 06:05:19;;;;;;;;;;;;;;;;;;5071903;28;19974;-74
2023/03/21 06:08:24;;;;;;;;;;;;;;;;;;5071710;28;19942;-73
2023/03/21 06:11:27;;;;;;;;;;;;;;;;;;5071761;28;20035;-74
2023/03/21 06:14:51;;;;;;;;;;;;;;;;;;5072536;28;19962;-73
2023/03/21 06:18:06;;;;;;;;;;;;;;;;;;5071274;28;19997;-75
2023/03/21 06:21:10;;;;;;;;;;;;;;;;;;5071541;28;19966;-75
2023/03/21 06:24:16;;;;;;;;;;;;;;;;;;5071295;28;20391;-75
2023/03/21 06:27:20;;;;;;;;;;;;;;;;;;5075262;28;19919;-76
2023/03/21 06:30:32;;;;;;;;;;;;;;;;;;5075387;28;19957;-76
2023/03/21 06:33:46;;;;;;;;;;;;;;;;;;5065542;28;20426;-74
2023/03/21 06:36:51;;;;;;;;;;;;;;;;;;5076431;28;19923;-74
2023/03/21 06:39:55;;;;;;;;;;;;;;;;;;5075282;28;19947;-78
2023/03/21 06:42:57;;;;;;;;;;;;;;;;;;5074893;28;19974;-79
2023/03/21 06:46:00;;;;;;;;;;;;;;;;;;5075783;28;19966;-75
2023/03/21 06:49:03;;;;;;;;;;;;;;;;;;5075708;28;20376;-74
2023/03/21 06:52:06;;;;;;;;;;;;;;;;;;5075523;28;19974;-75
2023/03/21 06:55:09;;;;;;;;;;;;;;;;;;5073015;28;19942;-75
2023/03/21 06:58:12;;;;;;;;;;;;;;;;;;5073027;28;19920;-74
2023/03/21 07:01:15;;;;;;;;;;;;;;;;;;5075114;28;19919;-75
2023/03/21 07:04:29;;;;;;;;;;;;;;;;;;5074842;28;20383;-76
2023/03/21 07:07:34;;;;;;;;;;;;;;;;;;5074993;28;20330;-76
2023/03/21 07:10:37;;;;;;;;;;;;;;;;;;5087141;28;19995;-76
2023/03/21 07:13:47;;;;;;;;;;;;;;;;;;5074724;28;19951;-76
2023/03/21 07:16:50;;;;;;;;;;;;;;;;;;5074238;28;19989;-75
2023/03/21 07:19:53;;;;;;;;;;;;;;;;;;5073948;28;19924;-73
2023/03/21 07:22:55;;;;;;;;;;;;;;;;;;5074612;28;20046;-78
2023/03/21 07:25:58;;;;;;;;;;;;;;;;;;5074466;28;20004;-75
2023/03/21 07:29:01;;;;;;;;;;;;;;;;;;5074450;28;19919;-72
2023/03/21 07:32:04;;;;;;;;;;;;;;;;;;5074416;28;19920;-72
2023/03/21 07:35:07;;;;;;;;;;;;;;;;;;5074243;28;19979;-72
2023/03/21 07:38:11;;;;;;;;;;;;;;;;;;5073431;28;19977;-72
2023/03/21 07:41:14;;;;;;;;;;;;;;;;;;5074022;28;20387;-73
2023/03/21 07:44:21;;;;;;;;;;;;;;;;;;5074390;28;19919;-74
2023/03/21 07:47:25;;;;;;;;;;;;;;;;;;5074129;28;19967;-74
2023/03/21 07:50:28;;;;;;;;;;;;;;;;;;5074944;28;19962;-73
2023/03/21 07:53:30;;;;;;;;;;;;;;;;;;5074642;28;19967;-72
2023/03/21 07:56:33;;;;;;;;;;;;;;;;;;5074836;28;19920;-73
2023/03/21 07:59:36;;;;;;;;;;;;;;;;;;5074667;28;20002;-75
2023/03/21 08:02:39;;;;;;;;;;;;;;;;;;5074702;28;19919;-77
2023/03/21 08:05:43;;;;;;;;;;;;;;;;;;5074573;28;19919;-74
2023/03/21 08:08:46;;;;;;;;;;;;;;;;;;5074612;28;20237;-71
2023/03/21 08:11:49;;;;;;;;;;;;;;;;;;5074402;28;19923;-72
2023/03/21 08:14:51;;;;;;;;;;;;;;;;;;5074181;28;19939;-72
2023/03/21 08:17:54;;;;;;;;;;;;;;;;;;5074368;28;19919;-72
2023/03/21 08:21:06;;;;;;;;;;;;;;;;;;5074705;28;19957;-75
2023/03/21 08:24:10;;;;;;;;;;;;;;;;;;5074370;28;20493;-74
2023/03/21 08:27:15;;;;;;;;;;;;;;;;;;5074606;28;19919;-74
2023/03/21 08:30:18;;;;;;;;;;;;;;;;;;5073570;28;20375;-74
2023/03/21 08:33:21;;;;;;;;;;;;;;;;;;5073955;28;20012;-76
2023/03/21 08:36:25;;;;;;;;;;;;;;;;;;5073683;28;20012;-74
2023/03/21 08:39:28;;;;;;;;;;;;;;;;;;5073948;28;20395;-75
2023/03/21 08:42:31;;;;;;;;;;;;;;;;;;5073851;28;20383;-73
2023/03/21 08:45:34;;;;;;;;;;;;;;;;;;5073806;28;19919;-73
2023/03/21 08:48:37;;;;;;;;;;;;;;;;;;5073610;28;19998;-73
2023/03/21 08:51:40;;;;;;;;;;;;;;;;;;5073479;28;19923;-73
2023/03/21 08:54:44;;;;;;;;;;;;;;;;;;5073544;28;19923;-73
2023/03/21 08:57:50;;;;;;;;;;;;;;;;;;5073187;28;20391;-70
2023/03/21 09:00:52;;;;;;;;;;;;;;;;;;5073145;28;20007;-71
2023/03/21 09:03:55;;;;;;;;;;;;;;;;;;5073249;28;20288;-72
2023/03/21 09:07:00;;;;;;;;;;;;;;;;;;5073703;28;20308;-73
2023/03/21 09:10:03;;;;;;;;;;;;;;;;;;5074058;28;19967;-74
2023/03/21 09:13:06;;;;;;;;;;;;;;;;;;5073401;28;20001;-75
2023/03/21 09:16:09;;;;;;;;;;;;;;;;;;5073639;28;20354;-73
2023/03/21 09:19:12;;;;;;;;;;;;;;;;;;5073731;28;19979;-73
2023/03/21 09:22:20;;;;;;;;;;;;;;;;;;5072687;28;20002;-77
2023/03/21 09:25:23;;;;;;;;;;;;;;;;;;5072717;28;19965;-75
2023/03/21 09:28:27;;;;;;;;;;;;;;;;;;5072807;28;19993;-75
2023/03/21 09:31:30;;;;;;;;;;;;;;;;;;5072969;28;19919;-75
2023/03/21 09:34:33;;;;;;;;;;;;;;;;;;5072839;28;19924;-77
2023/03/21 09:37:37;;;;;;;;;;;;;;;;;;5072655;28;19935;-76
2023/03/21 09:40:40;;;;;;;;;;;;;;;;;;5071560;28;20299;-74
2023/03/21 09:43:45;;;;;;;;;;;;;;;;;;5071539;28;19939;-76
2023/03/21 09:46:49;;;;;;;;;;;;;;;;;;5071359;28;19919;-75
2023/03/21 09:49:53;;;;;;;;;;;;;;;;;;5072581;28;19919;-76
2023/03/21 09:52:57;;;;;;;;;;;;;;;;;;5064179;28;19927;-76
2023/03/21 09:56:01;;;;;;;;;;;;;;;;;;5052804;28;19932;-76
2023/03/21 09:59:06;;;;;;;;;;;;;;;;;;5053110;28;20388;-76
2023/03/21 10:02:10;;;;;;;;;;;;;;;;;;5063749;28;19919;-76
2023/03/21 10:05:14;;;;;;;;;;;;;;;;;;5051112;28;19935;-77
2023/03/21 10:08:18;;;;;;;;;;;;;;;;;;5050350;28;20308;-75
2023/03/21 10:11:21;;;;;;;;;;;;;;;;;;5052067;28;19967;-76
2023/03/21 10:14:24;;;;;;;;;;;;;;;;;;5050465;28;20276;-76
2023/03/21 10:17:27;;;;;;;;;;;;;;;;;;5052700;28;20284;-75
2023/03/21 10:20:29;;;;;;;;;;;;;;;;;;5052755;28;19962;-75
2023/03/21 10:23:32;;;;;;;;;;;;;;;;;;5052372;28;19971;-75
2023/03/21 10:26:35;;;;;;;;;;;;;;;;;;5052282;28;19920;-75
2023/03/21 10:29:38;;;;;;;;;;;;;;;;;;5052310;28;19919;-75
2023/03/21 10:32:41;;;;;;;;;;;;;;;;;;5052324;28;19920;-75
2023/03/21 10:35:46;;;;;;;;;;;;;;;;;;5051407;28;19986;-76
2023/03/21 10:38:49;;;;;;;;;;;;;;;;;;5052500;28;20413;-76
2023/03/21 10:41:52;;;;;;;;;;;;;;;;;;5074612;28;19919;-75
2023/03/21 10:44:56;;;;;;;;;;;;;;;;;;5051553;28;19935;-75
2023/03/21 10:47:59;;;;;;;;;;;;;;;;;;5052154;28;19920;-75
2023/03/21 10:51:06;;;;;;;;;;;;;;;;;;5052083;28;19967;-75
2023/03/21 10:54:09;;;;;;;;;;;;;;;;;;5051966;28;19928;-75
2023/03/21 10:57:12;;;;;;;;;;;;;;;;;;5051988;28;20296;-75
2023/03/21 11:00:17;;;;;;;;;;;;;;;;;;5052082;28;19959;-75
2023/03/21 11:03:20;;;;;;;;;;;;;;;;;;5051983;28;19923;-74
2023/03/21 11:06:23;;;;;;;;;;;;;;;;;;5051892;28;19920;-75
2023/03/21 11:09:26;;;;;;;;;;;;;;;;;;5051850;28;19959;-74
2023/03/21 11:12:29;;;;;;;;;;;;;;;;;;5052564;28;19923;-74
2023/03/21 11:15:32;;;;;;;;;;;;;;;;;;5054911;28;19939;-73
2023/03/21 11:18:35;;;;;;;;;;;;;;;;;;5055618;28;19920;-75
2023/03/21 11:21:39;;;;;;;;;;;;;;;;;;5055340;28;19920;-74
2023/03/21 11:24:41;;;;;;;;;;;;;;;;;;5055274;28;19967;-74
2023/03/21 11:27:44;;;;;;;;;;;;;;;;;;5055228;28;20395;-74
2023/03/21 11:30:48;;;;;;;;;;;;;;;;;;5055434;28;19970;-77
2023/03/21 11:33:50;;;;;;;;;;;;;;;;;;5055012;28;19959;-74
2023/03/21 11:36:53;;;;;;;;;;;;;;;;;;5055114;28;19919;-74
2023/03/21 11:39:56;;;;;;;;;;;;;;;;;;5055028;28;19920;-74
2023/03/21 11:42:59;;;;;;;;;;;;;;;;;;5055324;28;19962;-74
2023/03/21 11:46:04;;;;;;;;;;;;;;;;;;5054959;28;20050;-74
2023/03/21 11:49:09;;;;;;;;;;;;;;;;;;5055177;28;20269;-74
2023/03/21 11:52:12;;;;;;;;;;;;;;;;;;5054660;28;19928;-75
2023/03/21 11:55:16;;;;;;;;;;;;;;;;;;5054757;28;20335;-74
2023/03/21 11:58:19;;;;;;;;;;;;;;;;;;5054774;28;19989;-74
2023/03/21 12:01:22;;;;;;;;;;;;;;;;;;5054935;28;20007;-74
2023/03/21 12:04:26;;;;;;;;;;;;;;;;;;5054760;28;19920;-74
2023/03/21 12:07:29;;;;;;;;;;;;;;;;;;5054793;28;20395;-74
2023/03/21 12:10:32;;;;;;;;;;;;;;;;;;5054788;28;19939;-74
2023/03/21 12:13:36;;;;;;;;;;;;;;;;;;5054680;28;19978;-75
2023/03/21 12:16:42;;;;;;;;;;;;;;;;;;5054453;28;20033;-74
2023/03/21 12:19:45;;;;;;;;;;;;;;;;;;5054522;28;19920;-78
2023/03/21 12:22:48;;;;;;;;;;;;;;;;;;5054149;28;19974;-76
2023/03/21 12:25:53;;;;;;;;;;;;;;;;;;5054079;28;19947;-77
2023/03/21 12:28:56;;;;;;;;;;;;;;;;;;5054411;28;19919;-76
2023/03/21 12:31:59;;;;;;;;;;;;;;;;;;5054067;28;19923;-76
2023/03/21 12:35:02;;;;;;;;;;;;;;;;;;5053834;28;19924;-75
2023/03/21 12:38:09;;;;;;;;;;;;;;;;;;5055014;28;19920;-75
2023/03/21 12:41:13;;;;;;;;;;;;;;;;;;5054485;28;19959;-74
2023/03/21 12:44:17;;;;;;;;;;;;;;;;;;5053934;28;20550;-77
2023/03/21 12:47:20;;;;;;;;;;;;;;;;;;5053757;28;19974;-76
2023/03/21 12:50:23;;;;;;;;;;;;;;;;;;5053770;28;19967;-78
2023/03/21 12:53:26;;;;;;;;;;;;;;;;;;5075733;28;19927;-74
2023/03/21 12:56:31;;;;;;;;;;;;;;;;;;5053401;28;20461;-74
2023/03/21 12:59:35;;;;;;;;;;;;;;;;;;5053557;28;20016;-75
2023/03/21 13:02:41;;;;;;;;;;;;;;;;;;5053783;28;19923;-76
2023/03/21 13:06:05;;;;;;;;;;;;;;;;;;5053549;28;19974;-75
2023/03/21 13:09:08;;;;;;;;;;;;;;;;;;5052462;28;19920;-74
2023/03/21 13:12:11;;;;;;;;;;;;;;;;;;5053345;28;19923;-75
2023/03/21 13:15:18;;;;;;;;;;;;;;;;;;5053174;28;19960;-75
2023/03/21 13:18:22;;;;;;;;;;;;;;;;;;5052632;28;19919;-75
2023/03/21 13:21:25;;;;;;;;;;;;;;;;;;5075622;28;20292;-75
2023/03/21 13:24:30;;;;;;;;;;;;;;;;;;5053455;28;19927;-75
2023/03/21 13:27:33;;;;;;;;;;;;;;;;;;5075572;28;19975;-78
2023/03/21 13:30:36;;;;;;;;;;;;;;;;;;5053530;28;19967;-78
2023/03/21 13:33:43;;;;;;;;;;;;;;;;;;5052951;28;19947;-78
2023/03/21 13:36:46;;;;;;;;;;;;;;;;;;5063301;28;19967;-75
2023/03/21 13:39:49;;;;;;;;;;;;;;;;;;5052886;28;19936;-75
2023/03/21 13:42:53;;;;;;;;;;;;;;;;;;5075276;28;20438;-76
2023/03/21 13:45:56;;;;;;;;;;;;;;;;;;5052656;28;20352;-77
2023/03/21 13:48:59;;;;;;;;;;;;;;;;;;5053092;28;20407;-77
2023/03/21 13:52:02;;;;;;;;;;;;;;;;;;5052545;28;19920;-74
2023/03/21 13:55:07;;;;;;;;;;;;;;;;;;5051702;28;20308;-75
2023/03/21 13:58:10;;;;;;;;;;;;;;;;;;5052599;28;19951;-75
2023/03/21 14:01:14;;;;;;;;;;;;;;;;;;5066187;28;19918;-74
2023/03/21 14:04:17;;;;;;;;;;;;;;;;;;5071720;28;19919;-70
2023/03/21 14:07:21;;;;;;;;;;;;;;;;;;5072763;28;19920;-75
2023/03/21 14:10:24;;;;;;;;;;;;;;;;;;5072253;28;19998;-75
2023/03/21 14:13:30;;;;;;;;;;;;;;;;;;5072622;28;19924;-76
2023/03/21 14:16:34;;;;;;;;;;;;;;;;;;5071958;28;20007;-76
2023/03/21 14:19:40;;;;;;;;;;;;;;;;;;5072012;28;20327;-76
2023/03/21 14:22:43;;;;;;;;;;;;;;;;;;5071464;28;20391;-76
2023/03/21 14:25:47;;;;;;;;;;;;;;;;;;5072369;28;20399;-77
2023/03/21 14:28:51;;;;;;;;;;;;;;;;;;5072361;28;19966;-75
2023/03/21 14:31:55;;;;;;;;;;;;;;;;;;5072584;28;19981;-75
2023/03/21 14:35:05;;;;;;;;;;;;;;;;;;5075653;28;19939;-76
2023/03/21 14:38:08;;;;;;;;;;;;;;;;;;5073441;28;20287;-75
2023/03/21 14:41:11;;;;;;;;;;;;;;;;;;5082119;28;19945;-75
2023/03/21 14:44:15;;;;;;;;;;;;;;;;;;5081463;28;20025;-75
2023/03/21 14:47:19;;;;;;;;;;;;;;;;;;5088324;28;19958;-75
2023/03/21 14:50:22;;;;;;;;;;;;;;;;;;5085349;28;20291;-75
2023/03/21 14:53:29;;;;;;;;;;;;;;;;;;5075428;28;19964;-75
2023/03/21 14:56:32;;;;;;;;;;;;;;;;;;5075438;28;19938;-73
2023/03/21 14:59:35;;;;;;;;;;;;;;;;;;5075771;28;20030;-74
2023/03/21 15:02:37;;;;;;;;;;;;;;;;;;5075608;28;19919;-74
2023/03/21 15:05:40;;;;;;;;;;;;;;;;;;5075540;28;19923;-72
2023/03/21 15:08:44;;;;;;;;;;;;;;;;;;5075958;28;19919;-73
2023/03/21 15:11:47;;;;;;;;;;;;;;;;;;5075645;28;20403;-73
2023/03/21 15:14:50;;;;;;;;;;;;;;;;;;5075519;28;20415;-74
2023/03/21 15:17:54;;;;;;;;;;;;;;;;;;5075312;28;19958;-74
2023/03/21 15:20:58;;;;;;;;;;;;;;;;;;5075710;28;20030;-74
2023/03/21 15:24:01;;;;;;;;;;;;;;;;;;5075367;28;19919;-75
2023/03/21 15:27:04;;;;;;;;;;;;;;;;;;5075351;28;19982;-74
2023/03/21 15:30:07;;;;;;;;;;;;;;;;;;5075278;28;20327;-75
2023/03/21 15:33:10;;;;;;;;;;;;;;;;;;5074943;28;20320;-74
2023/03/21 15:36:13;;;;;;;;;;;;;;;;;;5074650;28;20062;-74
2023/03/21 15:39:16;;;;;;;;;;;;;;;;;;5075182;28;20079;-75
2023/03/21 15:42:19;;;;;;;;;;;;;;;;;;5075088;28;19971;-74
2023/03/21 15:45:21;;;;;;;;;;;;;;;;;;5075035;28;19919;-74
2023/03/21 15:48:25;;;;;;;;;;;;;;;;;;5075052;28;19973;-75
2023/03/21 15:51:28;;;;;;;;;;;;;;;;;;5074977;28;20024;-75
2023/03/21 15:54:31;;;;;;;;;;;;;;;;;;5054904;28;20435;-75
2023/03/21 15:57:36;;;;;;;;;;;;;;;;;;5054303;28;19957;-75
2023/03/21 16:00:45;;;;;;;;;;;;;;;;;;5052792;28;19920;-76
2023/03/21 16:03:48;;;;;;;;;;;;;;;;;;5054493;28;20387;-74
2023/03/21 16:06:51;;;;;;;;;;;;;;;;;;5054767;28;19919;-76
2023/03/21 16:09:55;;;;;;;;;;;;;;;;;;5054422;28;20396;-75
2023/03/21 16:12:58;;;;;;;;;;;;;;;;;;5054308;28;19923;-75
2023/03/21 16:16:00;;;;;;;;;;;;;;;;;;5054492;28;19970;-75
2023/03/21 16:19:06;;;;;;;;;;;;;;;;;;5054270;28;19920;-75
2023/03/21 16:22:10;;;;;;;;;;;;;;;;;;5052497;28;20062;-75
2023/03/21 16:25:14;;;;;;;;;;;;;;;;;;5054535;28;19942;-76
2023/03/21 16:28:17;;;;;;;;;;;;;;;;;;5054181;28;19959;-75
2023/03/21 16:31:20;;;;;;;;;;;;;;;;;;5054119;28;20012;-74
2023/03/21 16:34:23;;;;;;;;;;;;;;;;;;5054012;28;20020;-74
2023/03/21 16:37:26;;;;;;;;;;;;;;;;;;5054159;28;20379;-76
2023/03/21 16:40:31;;;;;;;;;;;;;;;;;;5053919;28;19919;-75
2023/03/21 16:43:38;;;;;;;;;;;;;;;;;;5053443;28;19920;-76
2023/03/21 16:46:41;;;;;;;;;;;;;;;;;;5051397;28;19963;-74
2023/03/21 16:49:44;;;;;;;;;;;;;;;;;;5051961;28;20002;-74
2023/03/21 16:52:51;;;;;;;;;;;;;;;;;;5054653;28;19962;-74
2023/03/21 16:56:01;;;;;;;;;;;;;;;;;;5073657;28;19928;-74
2023/03/21 16:59:04;;;;;;;;;;;;;;;;;;5073803;28;20037;-74
2023/03/21 17:02:10;;;;;;;;;;;;;;;;;;5073498;28;19919;-74
2023/03/21 17:05:13;;;;;;;;;;;;;;;;;;5073791;28;20296;-75
2023/03/21 17:08:16;;;;;;;;;;;;;;;;;;5073476;28;19920;-74
2023/03/21 17:11:20;;;;;;;;;;;;;;;;;;5072779;28;19931;-74
2023/03/21 17:14:23;;;;;;;;;;;;;;;;;;5073291;28;19970;-75
2023/03/21 17:17:29;;;;;;;;;;;;;;;;;;5072809;28;19919;-74
2023/03/21 17:20:32;;;;;;;;;;;;;;;;;;5066582;28;19982;-74
2023/03/21 17:23:37;;;;;;;;;;;;;;;;;;5071941;28;19919;-74
2023/03/21 17:26:40;;;;;;;;;;;;;;;;;;5071948;28;20315;-74
2023/03/21 17:29:43;;;;;;;;;;;;;;;;;;5068845;28;19919;-73
2023/03/21 17:32:46;;;;;;;;;;;;;;;;;;5070621;28;20015;-74
2023/03/21 17:35:49;;;;;;;;;;;;;;;;;;5071359;28;19939;-75
2023/03/21 17:38:54;;;;;;;;;;;;;;;;;;5072826;28;20414;-75
2023/03/21 17:41:57;;;;;;;;;;;;;;;;;;5073057;28;19924;-75
2023/03/21 17:45:00;;;;;;;;;;;;;;;;;;5072696;28;20280;-75
2023/03/21 17:48:03;;;;;;;;;;;;;;;;;;5072346;28;20486;-75
2023/03/21 17:51:07;;;;;;;;;;;;;;;;;;5072860;28;19919;-74
2023/03/21 17:54:10;;;;;;;;;;;;;;;;;;5071878;28;20398;-75
2023/03/21 17:57:14;;;;;;;;;;;;;;;;;;5070994;28;19920;-76
2023/03/21 18:00:19;;;;;;;;;;;;;;;;;;5069936;28;19966;-74
2023/03/21 18:03:24;;;;;;;;;;;;;;;;;;5072746;28;19924;-75
2023/03/21 18:06:29;;;;;;;;;;;;;;;;;;5072204;28;19920;-74
2023/03/21 18:09:34;;;;;;;;;;;;;;;;;;5071199;28;19919;-78
2023/03/21 18:12:37;;;;;;;;;;;;;;;;;;5069404;28;20029;-76
2023/03/21 18:15:41;;;;;;;;;;;;;;;;;;5059353;28;19977;-80
2023/03/21 18:18:45;;;;;;;;;;;;;;;;;;5070780;28;19963;-77
2023/03/21 18:21:48;;;;;;;;;;;;;;;;;;5072623;28;19927;-77
2023/03/21 18:24:52;;;;;;;;;;;;;;;;;;5075431;28;19927;-78
2023/03/21 18:27:55;;;;;;;;;;;;;;;;;;5075470;28;20429;-76
2023/03/21 18:30:58;;;;;;;;;;;;;;;;;;5076650;28;20585;-80
2023/03/21 18:34:01;;;;;;;;;;;;;;;;;;5076401;28;19928;-78
2023/03/21 18:37:04;;;;;;;;;;;;;;;;;;5076154;28;19919;-81
2023/03/21 18:40:10;;;;;;;;;;;;;;;;;;5076322;28;20396;-77
2023/03/21 18:43:13;;;;;;;;;;;;;;;;;;5063636;28;20360;-77
2023/03/21 18:46:16;;;;;;;;;;;;;;;;;;5076247;28;19954;-76
2023/03/21 18:49:20;;;;;;;;;;;;;;;;;;5076400;28;19990;-76
2023/03/21 18:52:24;;;;;;;;;;;;;;;;;;5075268;28;19965;-76
2023/03/21 18:55:28;;;;;;;;;;;;;;;;;;5075840;28;19974;-75
2023/03/21 18:58:32;;;;;;;;;;;;;;;;;;5076249;28;19966;-75
2023/03/21 19:01:35;;;;;;;;;;;;;;;;;;5075021;28;19919;-76
2023/03/21 19:04:38;;;;;;;;;;;;;;;;;;5075927;28;19959;-76
2023/03/21 19:07:41;;;;;;;;;;;;;;;;;;5074938;28;19919;-74
2023/03/21 19:10:45;;;;;;;;;;;;;;;;;;5076067;28;19954;-77
2023/03/21 19:13:48;;;;;;;;;;;;;;;;;;5075683;28;19923;-76
2023/03/21 19:16:53;;;;;;;;;;;;;;;;;;5075454;28;20319;-73
2023/03/21 19:19:56;;;;;;;;;;;;;;;;;;5075474;28;19999;-74
2023/03/21 19:23:00;;;;;;;;;;;;;;;;;;5075532;28;19922;-74
2023/03/21 19:26:04;;;;;;;;;;;;;;;;;;5075466;28;19985;-74
2023/03/21 19:29:07;;;;;;;;;;;;;;;;;;5075526;28;19967;-76
2023/03/21 19:32:10;;;;;;;;;;;;;;;;;;5075062;28;19966;-74
2023/03/21 19:35:14;;;;;;;;;;;;;;;;;;5074917;28;20411;-75
2023/03/21 19:38:17;;;;;;;;;;;;;;;;;;5075537;28;20418;-74
2023/03/21 19:41:20;;;;;;;;;;;;;;;;;;5074721;28;20260;-74
2023/03/21 19:44:23;;;;;;;;;;;;;;;;;;5074941;28;19934;-75
2023/03/21 19:47:26;;;;;;;;;;;;;;;;;;5074927;28;19978;-74
2023/03/21 19:50:29;;;;;;;;;;;;;;;;;;5074814;28;20426;-75
2023/03/21 19:53:32;;;;;;;;;;;;;;;;;;5074912;28;19924;-76
2023/03/21 19:56:38;;;;;;;;;;;;;;;;;;5074471;28;19919;-74
2023/03/21 19:59:41;;;;;;;;;;;;;;;;;;5074015;28;19919;-75
2023/03/21 20:02:45;;;;;;;;;;;;;;;;;;5074848;28;19980;-76
2023/03/21 20:05:48;;;;;;;;;;;;;;;;;;5075206;28;20016;-75
2023/03/21 20:08:52;;;;;;;;;;;;;;;;;;5074749;28;19970;-75
2023/03/21 20:11:59;;;;;;;;;;;;;;;;;;5075067;28;20271;-75
2023/03/21 20:15:03;;;;;;;;;;;;;;;;;;5074651;28;19950;-74
2023/03/21 20:18:07;;;;;;;;;;;;;;;;;;5074765;28;19919;-75
2023/03/21 20:21:11;;;;;;;;;;;;;;;;;;5075072;28;19919;-75
2023/03/21 20:24:16;;;;;;;;;;;;;;;;;;5074781;28;19919;-74
2023/03/21 20:27:23;;;;;;;;;;;;;;;;;;5074695;28;19919;-75
2023/03/21 20:30:26;;;;;;;;;;;;;;;;;;5074542;28;19920;-75
2023/03/21 20:33:30;;;;;;;;;;;;;;;;;;5074161;28;20071;-75
2023/03/21 20:36:33;;;;;;;;;;;;;;;;;;5074158;28;19920;-75
2023/03/21 20:39:38;;;;;;;;;;;;;;;;;;5074413;28;19966;-75
2023/03/21 20:42:42;;;;;;;;;;;;;;;;;;5074050;28;19935;-75
2023/03/21 20:45:46;;;;;;;;;;;;;;;;;;5072047;28;20012;-75
2023/03/21 20:48:51;;;;;;;;;;;;;;;;;;5073654;28;20022;-75
2023/03/21 20:51:53;;;;;;;;;;;;;;;;;;5074086;28;19963;-75
2023/03/21 20:54:57;;;;;;;;;;;;;;;;;;5073824;28;19974;-75
2023/03/21 20:58:02;;;;;;;;;;;;;;;;;;5072994;28;19920;-74
2023/03/21 21:01:09;;;;;;;;;;;;;;;;;;5073965;28;19965;-74